createdAt,value
2019-02-15T00:09:34.971Z,976.2
2019-02-15T00:19:38.491Z,976.1
2019-02-15T00:29:42.010Z,976.1
2019-02-15T00:39:45.517Z,976.2
2019-02-15T00:49:49.051Z,976.2
2019-02-15T00:59:52.580Z,976.3
2019-02-15T01:09:56.097Z,976.3
2019-02-15T01:19:59.623Z,976.4
2019-02-15T01:30:03.136Z,976.2
2019-02-15T01:40:06.657Z,976.3
2019-02-15T01:50:10.207Z,976.4
2019-02-15T02:00:13.726Z,976.1
2019-02-15T02:10:17.189Z,976.1
2019-02-15T02:20:20.762Z,976.1
2019-02-15T02:30:24.295Z,976.1
2019-02-15T02:40:27.833Z,976.4
2019-02-15T02:50:31.351Z,976.2
2019-02-15T03:00:34.932Z,976.3
2019-02-15T03:10:38.448Z,976.4
2019-02-15T03:20:42.029Z,976.4
2019-02-15T03:30:45.568Z,976.5
2019-02-15T03:40:49.097Z,976.4
2019-02-15T03:50:52.605Z,976.4
2019-02-15T04:00:56.162Z,976.4
2019-02-15T04:11:00.671Z,976.5
2019-02-15T04:21:04.218Z,976.5
2019-02-15T04:31:07.746Z,976.6
2019-02-15T04:41:11.270Z,976.6
2019-02-15T04:51:14.794Z,976.7
2019-02-15T05:01:18.354Z,976.6
2019-02-15T05:11:21.839Z,976.6
2019-02-15T05:21:25.382Z,976.7
2019-02-15T05:31:28.929Z,976.7
2019-02-15T05:41:32.460Z,976.6
2019-02-15T05:51:35.982Z,976.6
2019-02-15T06:01:39.501Z,976.6
2019-02-15T06:11:42.995Z,976.6
2019-02-15T06:21:46.518Z,976.6
2019-02-15T06:31:50.042Z,976.7
2019-02-15T06:41:53.565Z,976.7
2019-02-15T06:51:57.058Z,976.7
2019-02-15T07:02:00.583Z,977
2019-02-15T07:12:04.054Z,977.1
2019-02-15T07:22:07.551Z,977.1
2019-02-15T07:32:11.060Z,977
2019-02-15T07:42:14.546Z,976.9
2019-02-15T07:52:18.051Z,976.8
2019-02-15T08:02:21.582Z,976.7
2019-02-15T08:12:25.128Z,976.6
2019-02-15T08:22:28.657Z,976.4
2019-02-15T08:32:32.152Z,976.2
2019-02-15T08:42:35.695Z,975.9
2019-02-15T08:52:39.266Z,975.8
2019-02-15T09:02:42.815Z,977
2019-02-15T09:12:46.299Z,980.4
2019-02-15T09:22:49.797Z,980.9
2019-02-15T09:32:53.296Z,978.4
2019-02-15T09:42:56.810Z,975
2019-02-15T09:53:00.334Z,981.4
2019-02-15T10:03:03.842Z,980.4
2019-02-15T10:13:07.375Z,979.7
2019-02-15T10:23:10.887Z,979
2019-02-15T10:33:14.412Z,978.5
2019-02-15T10:43:17.914Z,978
2019-02-15T10:53:21.439Z,977.5
2019-02-15T11:03:24.943Z,977
2019-02-15T11:13:28.440Z,976.6
2019-02-15T11:23:31.928Z,976.1
2019-02-15T11:33:35.442Z,975.7
2019-02-15T11:43:38.981Z,975.2
2019-02-15T11:53:42.492Z,975
2019-02-15T12:03:46.027Z,974.4
2019-02-15T12:13:49.518Z,974.3
2019-02-15T12:23:52.996Z,974
2019-02-15T12:33:56.523Z,973.7
2019-02-15T12:44:00.031Z,973.5
2019-02-15T12:54:03.536Z,973.1
2019-02-15T13:04:07.074Z,972.9
2019-02-15T13:14:10.588Z,972.7
2019-02-15T13:24:14.109Z,972.4
2019-02-15T13:34:17.657Z,972.3
2019-02-15T13:44:21.147Z,972.2
2019-02-15T13:54:24.689Z,972.1
2019-02-15T14:04:28.192Z,976.4
2019-02-15T14:14:31.660Z,977.9
2019-02-15T14:24:35.414Z,978.6
2019-02-15T14:34:38.896Z,971.6
2019-02-15T14:44:42.357Z,971.7
2019-02-15T14:54:45.824Z,972.4
2019-02-15T15:04:49.347Z,973.1
2019-02-15T15:14:52.850Z,973.5
2019-02-15T15:24:56.324Z,973.5
2019-02-15T15:34:59.856Z,974
2019-02-15T15:45:03.384Z,974.2
2019-02-15T15:55:06.904Z,974.5
2019-02-15T16:05:10.427Z,975.1
2019-02-15T16:15:13.935Z,975.3
2019-02-15T16:25:17.432Z,974.5
2019-02-15T16:35:20.958Z,974.5
2019-02-15T16:45:24.459Z,971.6
2019-02-15T16:55:27.988Z,978.1
2019-02-15T17:05:31.520Z,977.3
2019-02-15T17:15:35.045Z,976.7
2019-02-15T17:25:38.552Z,976.2
2019-02-15T17:35:42.060Z,975.9
2019-02-15T17:45:45.600Z,975.7
2019-02-15T17:55:49.127Z,975.2
2019-02-15T18:05:53.632Z,975
2019-02-15T18:15:57.141Z,974.6
2019-02-15T18:26:00.692Z,974.4
2019-02-15T18:36:04.179Z,974.2
2019-02-15T18:46:07.729Z,974
2019-02-15T18:56:11.260Z,973.8
2019-02-15T19:06:14.767Z,973.7
2019-02-15T19:16:18.251Z,973.5
2019-02-15T19:26:21.729Z,973.5
2019-02-15T19:36:25.378Z,973.3
2019-02-15T19:46:28.876Z,973.2
2019-02-15T19:56:32.384Z,973.1
2019-02-15T20:06:35.899Z,973
2019-02-15T20:16:39.429Z,972.8
2019-02-15T20:26:42.905Z,972.8
2019-02-15T20:36:46.405Z,972.6
2019-02-15T20:46:49.915Z,972.6
2019-02-15T20:56:53.472Z,972.6
2019-02-15T21:06:56.971Z,972.5
2019-02-15T21:17:00.488Z,972.5
2019-02-15T21:27:03.952Z,972.3
2019-02-15T21:37:07.534Z,972.3
2019-02-15T21:47:11.075Z,972.3
2019-02-15T21:57:14.539Z,972.2
2019-02-15T22:07:18.037Z,972.3
2019-02-15T22:17:21.548Z,972.3
2019-02-15T22:27:25.052Z,972.3
2019-02-15T22:37:28.559Z,972.4
2019-02-15T22:47:32.073Z,972.6
2019-02-15T22:57:35.583Z,972.7
2019-02-15T23:07:39.094Z,972.8
2019-02-15T23:17:42.614Z,973
2019-02-15T23:27:46.126Z,973
2019-02-15T23:37:49.648Z,973.1
2019-02-15T23:47:53.167Z,973.1
2019-02-15T23:57:56.672Z,973.1
